createdAt,value
2023-02-19T00:01:12.989Z,12.55
2023-02-19T00:03:40.370Z,18.67
2023-02-19T00:06:09.959Z,11.50
2023-02-19T00:08:38.329Z,14.10
2023-02-19T00:11:11.108Z,13.90
2023-02-19T00:13:39.114Z,15.20
2023-02-19T00:16:16.619Z,13.77
2023-02-19T00:18:43.484Z,11.07
2023-02-19T00:21:10.314Z,12.03
2023-02-19T00:23:37.605Z,16.77
2023-02-19T00:26:18.089Z,9.25
2023-02-19T00:28:46.743Z,12.45
2023-02-19T00:31:18.165Z,8.70
2023-02-19T00:33:45.696Z,8.27
2023-02-19T00:36:13.547Z,11.95
2023-02-19T00:38:41.956Z,13.07
2023-02-19T00:41:21.614Z,10.93
2023-02-19T00:43:53.537Z,15.82
2023-02-19T00:46:28.656Z,15.33
2023-02-19T00:48:56.260Z,10.38
2023-02-19T00:51:25.683Z,7.18
2023-02-19T00:53:52.520Z,11.60
2023-02-19T00:56:19.279Z,11.60
2023-02-19T00:58:46.500Z,18.00
2023-02-19T01:01:13.589Z,12.13
2023-02-19T01:03:40.711Z,13.95
2023-02-19T01:06:09.517Z,11.75
2023-02-19T01:08:36.392Z,10.88
2023-02-19T01:11:04.558Z,13.50
2023-02-19T01:13:31.527Z,12.98
2023-02-19T01:16:09.330Z,11.77
2023-02-19T01:18:35.999Z,15.38
2023-02-19T01:21:07.911Z,15.02
2023-02-19T01:23:35.251Z,12.07
2023-02-19T01:26:05.358Z,15.45
2023-02-19T01:28:31.904Z,16.80
2023-02-19T01:31:03.704Z,15.25
2023-02-19T01:33:31.198Z,12.07
2023-02-19T01:35:57.800Z,13.97
2023-02-19T01:38:24.235Z,10.10
2023-02-19T01:40:58.351Z,15.32
2023-02-19T01:43:25.072Z,14.85
2023-02-19T01:45:53.445Z,17.65
2023-02-19T01:48:39.254Z,16.90
2023-02-19T01:51:11.312Z,10.13
2023-02-19T01:53:41.910Z,8.15
2023-02-19T01:56:09.817Z,13.50
2023-02-19T01:58:37.716Z,8.98
2023-02-19T02:01:07.116Z,15.97
2023-02-19T02:03:35.609Z,8.88
2023-02-19T02:06:07.918Z,10.13
2023-02-19T02:08:52.847Z,9.65
2023-02-19T02:11:20.305Z,9.73
2023-02-19T02:13:46.916Z,7.67
2023-02-19T02:16:26.971Z,12.07
2023-02-19T02:19:00.049Z,11.55
2023-02-19T02:21:44.458Z,10.98
2023-02-19T02:24:43.873Z,7.15
2023-02-19T02:27:33.214Z,9.97
2023-02-19T02:30:38.637Z,14.18
2023-02-19T02:33:41.294Z,10.85
2023-02-19T02:36:13.106Z,8.77
2023-02-19T02:38:42.739Z,6.90
2023-02-19T02:41:09.867Z,7.20
2023-02-19T02:43:36.556Z,12.57
2023-02-19T02:46:03.136Z,17.52
2023-02-19T02:48:47.280Z,14.77
2023-02-19T02:51:31.827Z,8.10
2023-02-19T02:54:25.455Z,7.97
2023-02-19T02:56:53.004Z,11.35
2023-02-19T02:59:23.649Z,7.50
2023-02-19T03:02:14.278Z,14.68
2023-02-19T03:05:25.264Z,7.35
2023-02-19T03:08:11.242Z,7.93
2023-02-19T03:10:49.040Z,8.57
2023-02-19T03:13:56.889Z,13.30
2023-02-19T03:16:47.575Z,8.48
2023-02-19T03:19:19.169Z,6.30
2023-02-19T03:21:51.724Z,8.47
2023-02-19T03:24:41.038Z,6.65
2023-02-19T03:27:11.537Z,11.73
2023-02-19T03:29:41.005Z,8.32
2023-02-19T03:32:33.458Z,8.82
2023-02-19T03:35:20.669Z,7.33
2023-02-19T03:38:04.502Z,12.07
2023-02-19T03:40:40.044Z,14.75
2023-02-19T03:43:23.421Z,9.77
2023-02-19T03:45:49.798Z,7.97
2023-02-19T03:48:22.898Z,6.77
2023-02-19T03:51:05.494Z,9.55
2023-02-19T03:53:34.877Z,7.95
2023-02-19T03:56:10.901Z,7.60
2023-02-19T03:58:49.230Z,8.18
2023-02-19T04:01:32.419Z,7.23
2023-02-19T04:04:12.645Z,9.02
2023-02-19T04:06:42.140Z,11.32
2023-02-19T04:09:11.703Z,8.43
2023-02-19T04:11:38.978Z,6.78
2023-02-19T04:14:11.594Z,7.77
2023-02-19T04:16:42.669Z,7.45
2023-02-19T04:19:16.823Z,7.15
2023-02-19T04:21:45.268Z,9.88
2023-02-19T04:24:18.842Z,8.13
2023-02-19T04:26:45.363Z,7.20
2023-02-19T04:29:11.860Z,8.13
2023-02-19T04:31:38.604Z,10.23
2023-02-19T04:34:05.378Z,7.68
2023-02-19T04:36:33.158Z,15.93
2023-02-19T04:38:59.638Z,6.83
2023-02-19T04:41:26.055Z,10.15
2023-02-19T04:43:52.498Z,8.18
2023-02-19T04:46:19.039Z,7.88
2023-02-19T04:48:45.571Z,6.05
2023-02-19T04:51:12.358Z,17.07
2023-02-19T04:53:38.983Z,8.00
2023-02-19T04:56:10.612Z,7.97
2023-02-19T04:58:37.357Z,13.52
2023-02-19T05:01:04.358Z,6.20
2023-02-19T05:03:31.490Z,8.10
2023-02-19T05:05:57.899Z,12.20
2023-02-19T05:08:24.281Z,8.60
2023-02-19T05:10:50.694Z,10.95
2023-02-19T05:13:17.174Z,7.70
2023-02-19T05:16:04.070Z,7.57
2023-02-19T05:18:31.368Z,8.07
2023-02-19T05:20:59.346Z,6.43
2023-02-19T05:23:25.870Z,10.55
2023-02-19T05:25:52.690Z,8.75
2023-02-19T05:28:19.259Z,11.57
2023-02-19T05:30:51.108Z,5.32
2023-02-19T05:33:20.820Z,10.13
2023-02-19T05:35:49.829Z,7.97
2023-02-19T05:38:17.284Z,4.57
2023-02-19T05:40:44.875Z,9.00
2023-02-19T05:43:12.149Z,9.73
2023-02-19T05:45:39.005Z,8.43
2023-02-19T05:48:07.014Z,10.57
2023-02-19T05:50:35.341Z,9.60
2023-02-19T05:53:02.877Z,7.60
2023-02-19T05:55:30.133Z,13.68
2023-02-19T05:57:56.529Z,13.63
2023-02-19T06:00:23.173Z,13.85
2023-02-19T06:02:49.633Z,10.40
2023-02-19T06:05:16.116Z,8.83
2023-02-19T06:07:42.972Z,9.15
2023-02-19T06:10:11.067Z,6.97
2023-02-19T06:12:38.402Z,8.00
2023-02-19T06:15:06.439Z,8.88
2023-02-19T06:17:34.067Z,11.60
2023-02-19T06:20:00.881Z,5.47
2023-02-19T06:22:27.964Z,9.13
2023-02-19T06:24:54.341Z,9.70
2023-02-19T06:27:21.148Z,12.50
2023-02-19T06:29:47.607Z,9.40
2023-02-19T06:32:14.203Z,9.32
2023-02-19T06:34:40.703Z,9.48
2023-02-19T06:37:07.190Z,8.45
2023-02-19T06:39:33.612Z,6.57
2023-02-19T06:42:00.152Z,7.27
2023-02-19T06:44:26.577Z,10.65
2023-02-19T06:46:55.350Z,5.45
2023-02-19T06:49:21.986Z,5.22
2023-02-19T06:51:48.456Z,9.30
2023-02-19T06:54:14.937Z,6.70
2023-02-19T06:56:42.882Z,7.60
2023-02-19T06:59:16.910Z,5.35
2023-02-19T07:01:44.853Z,6.97
2023-02-19T07:04:11.414Z,6.30
2023-02-19T07:06:38.234Z,11.43
2023-02-19T07:09:06.727Z,7.80
2023-02-19T07:11:34.967Z,9.82
2023-02-19T07:14:03.724Z,9.27
2023-02-19T07:16:30.814Z,9.98
2023-02-19T07:18:58.641Z,8.27
2023-02-19T07:21:25.291Z,12.80
2023-02-19T07:23:52.175Z,9.70
2023-02-19T07:26:20.937Z,9.15
2023-02-19T07:28:49.761Z,9.48
2023-02-19T07:31:18.696Z,8.30
2023-02-19T07:33:46.141Z,11.73
2023-02-19T07:36:14.072Z,8.50
2023-02-19T07:38:40.518Z,10.85
2023-02-19T07:41:07.574Z,7.50
2023-02-19T07:43:36.673Z,15.43
2023-02-19T07:46:09.062Z,10.77
2023-02-19T07:48:36.728Z,13.13
2023-02-19T07:51:04.991Z,12.30
2023-02-19T07:53:33.533Z,8.43
2023-02-19T07:56:01.968Z,8.30
2023-02-19T07:58:29.113Z,10.88
2023-02-19T08:00:55.859Z,12.90
2023-02-19T08:03:22.455Z,15.20
2023-02-19T08:05:51.379Z,15.68
2023-02-19T08:08:18.000Z,13.57
2023-02-19T08:11:02.827Z,19.02
2023-02-19T08:13:30.850Z,19.13
2023-02-19T08:16:20.117Z,16.38
2023-02-19T08:18:48.746Z,15.98
2023-02-19T08:21:18.220Z,13.10
2023-02-19T08:23:46.192Z,15.60
2023-02-19T08:26:12.595Z,16.25
2023-02-19T08:28:39.052Z,10.80
2023-02-19T08:31:07.463Z,14.27
2023-02-19T08:33:34.191Z,14.80
2023-02-19T08:36:09.047Z,16.73
2023-02-19T08:38:36.853Z,10.10
2023-02-19T08:41:09.214Z,8.75
2023-02-19T08:43:36.182Z,9.00
2023-02-19T08:46:06.485Z,10.20
2023-02-19T08:48:33.630Z,12.68
2023-02-19T08:51:03.866Z,11.52
2023-02-19T08:53:33.140Z,15.20
2023-02-19T08:56:04.846Z,10.80
2023-02-19T08:58:32.798Z,16.87
2023-02-19T09:00:59.540Z,11.98
2023-02-19T09:03:26.252Z,14.00
2023-02-19T09:05:53.010Z,9.43
2023-02-19T09:08:19.587Z,15.80
2023-02-19T09:10:49.296Z,14.80
2023-02-19T09:13:15.720Z,14.80
2023-02-19T09:15:42.097Z,13.15
2023-02-19T09:18:08.510Z,11.88
2023-02-19T09:20:34.922Z,13.18
2023-02-19T09:23:01.424Z,14.33
2023-02-19T09:25:30.806Z,8.93
2023-02-19T09:27:57.370Z,14.32
2023-02-19T09:30:24.038Z,11.88
2023-02-19T09:32:50.558Z,8.57
2023-02-19T09:35:17.002Z,14.90
2023-02-19T09:37:43.557Z,11.27
2023-02-19T09:40:10.850Z,8.05
2023-02-19T09:42:41.921Z,9.18
2023-02-19T09:45:16.312Z,10.63
2023-02-19T09:47:42.787Z,6.70
2023-02-19T09:50:15.045Z,5.07
2023-02-19T09:53:01.552Z,9.88
2023-02-19T09:55:36.703Z,5.38
2023-02-19T09:58:15.281Z,7.28
2023-02-19T10:00:41.807Z,3.83
2023-02-19T10:03:16.054Z,6.45
2023-02-19T10:05:42.990Z,6.38
2023-02-19T10:08:15.850Z,4.90
2023-02-19T10:10:44.218Z,7.80
2023-02-19T10:13:22.721Z,7.23
2023-02-19T10:15:56.269Z,5.00
2023-02-19T10:18:25.795Z,2.05
2023-02-19T10:20:53.004Z,1.38
2023-02-19T10:23:19.973Z,2.00
2023-02-19T10:25:54.196Z,3.00
2023-02-19T10:28:24.629Z,2.90
2023-02-19T10:30:57.692Z,2.17
2023-02-19T10:33:25.291Z,2.40
2023-02-19T10:35:56.189Z,1.58
2023-02-19T10:38:30.167Z,0.90
2023-02-19T10:41:01.827Z,1.42
2023-02-19T10:43:33.866Z,2.35
2023-02-19T10:46:08.516Z,2.15
2023-02-19T10:48:40.815Z,1.55
2023-02-19T10:51:11.280Z,2.30
2023-02-19T10:53:45.169Z,2.78
2023-02-19T10:56:26.278Z,2.03
2023-02-19T10:58:53.161Z,1.42
2023-02-19T11:01:22.224Z,1.73
2023-02-19T11:03:52.464Z,1.30
2023-02-19T11:06:26.650Z,2.03
2023-02-19T11:08:58.724Z,3.13
2023-02-19T11:11:37.833Z,1.23
2023-02-19T11:14:14.650Z,1.13
2023-02-19T11:16:46.286Z,1.37
2023-02-19T11:19:36.597Z,2.33
2023-02-19T11:22:19.886Z,2.10
2023-02-19T11:24:56.201Z,1.73
2023-02-19T11:27:25.255Z,2.25
2023-02-19T11:29:51.713Z,2.33
2023-02-19T11:32:21.195Z,1.95
2023-02-19T11:34:48.107Z,1.67
2023-02-19T11:37:16.976Z,1.70
2023-02-19T11:39:46.558Z,3.33
2023-02-19T11:42:30.223Z,0.90
2023-02-19T11:45:28.680Z,1.15
2023-02-19T11:48:10.707Z,1.30
2023-02-19T11:51:00.407Z,1.08
2023-02-19T11:53:28.343Z,1.48
2023-02-19T11:56:11.510Z,1.00
2023-02-19T11:58:59.514Z,1.75
2023-02-19T12:01:56.443Z,1.33
2023-02-19T12:04:25.853Z,2.33
2023-02-19T12:07:25.807Z,2.20
2023-02-19T12:10:00.910Z,1.30
2023-02-19T12:12:47.251Z,1.05
2023-02-19T12:15:34.936Z,1.23
2023-02-19T12:18:31.256Z,1.08
2023-02-19T12:21:10.620Z,1.30
2023-02-19T12:23:54.696Z,1.77
2023-02-19T12:26:28.605Z,1.38
2023-02-19T12:29:05.850Z,1.25
2023-02-19T12:31:35.320Z,1.42
2023-02-19T12:34:29.271Z,1.30
2023-02-19T12:37:07.977Z,1.60
2023-02-19T12:39:41.090Z,1.83
2023-02-19T12:42:25.985Z,1.17
2023-02-19T12:45:01.222Z,0.95
2023-02-19T12:47:38.077Z,0.95
2023-02-19T12:50:21.515Z,1.33
2023-02-19T12:52:53.796Z,0.90
2023-02-19T12:55:28.814Z,1.45
2023-02-19T12:57:57.996Z,1.98
2023-02-19T13:00:42.812Z,1.40
2023-02-19T13:03:32.460Z,1.00
2023-02-19T13:06:21.678Z,1.25
2023-02-19T13:09:06.698Z,1.42
2023-02-19T13:11:51.668Z,1.80
2023-02-19T13:14:36.923Z,1.30
2023-02-19T13:17:19.854Z,1.90
2023-02-19T13:19:50.424Z,1.95
2023-02-19T13:22:50.172Z,1.25
2023-02-19T13:25:19.096Z,2.67
2023-02-19T13:28:03.799Z,1.90
2023-02-19T13:31:00.228Z,1.90
2023-02-19T13:33:48.411Z,2.78
2023-02-19T13:36:21.506Z,1.58
2023-02-19T13:38:50.217Z,1.73
2023-02-19T13:41:40.349Z,2.30
2023-02-19T13:44:16.069Z,2.13
2023-02-19T13:46:45.464Z,1.20
2023-02-19T13:49:33.720Z,1.92
2023-02-19T13:52:02.223Z,4.95
2023-02-19T13:54:33.352Z,2.53
2023-02-19T13:57:22.786Z,3.17
2023-02-19T13:59:50.699Z,1.40
2023-02-19T14:02:20.214Z,1.90
2023-02-19T14:05:01.214Z,1.20
2023-02-19T14:07:27.588Z,4.47
2023-02-19T14:09:54.682Z,1.30
2023-02-19T14:12:22.890Z,2.38
2023-02-19T14:14:56.959Z,2.35
2023-02-19T14:17:35.167Z,1.73
2023-02-19T14:20:09.070Z,1.55
2023-02-19T14:22:55.528Z,1.43
2023-02-19T14:25:30.728Z,3.78
2023-02-19T14:28:13.402Z,2.13
2023-02-19T14:31:11.234Z,1.25
2023-02-19T14:33:40.211Z,1.92
2023-02-19T14:36:16.837Z,1.40
2023-02-19T14:39:12.425Z,0.73
2023-02-19T14:41:42.153Z,0.95
2023-02-19T14:44:19.398Z,0.60
2023-02-19T14:46:57.869Z,0.50
2023-02-19T14:50:02.855Z,0.43
2023-02-19T14:52:36.603Z,0.73
2023-02-19T14:55:14.913Z,0.65
2023-02-19T14:57:45.723Z,0.80
2023-02-19T15:00:33.557Z,1.30
2023-02-19T15:03:00.136Z,0.20
2023-02-19T15:05:29.379Z,1.08
2023-02-19T15:07:59.684Z,0.22
2023-02-19T15:10:29.045Z,0.30
2023-02-19T15:13:05.933Z,0.50
2023-02-19T15:15:53.514Z,1.23
2023-02-19T15:18:22.666Z,1.10
2023-02-19T15:20:50.486Z,2.00
2023-02-19T15:23:22.352Z,0.43
2023-02-19T15:25:49.517Z,2.30
2023-02-19T15:28:20.090Z,1.23
2023-02-19T15:30:46.705Z,1.05
2023-02-19T15:33:19.040Z,1.10
2023-02-19T15:35:57.750Z,1.02
2023-02-19T15:38:25.544Z,1.15
2023-02-19T15:40:53.143Z,0.83
2023-02-19T15:43:34.696Z,0.55
2023-02-19T15:46:13.179Z,1.98
2023-02-19T15:48:49.760Z,0.82
2023-02-19T15:51:24.601Z,2.05
2023-02-19T15:54:07.548Z,0.30
2023-02-19T15:56:37.846Z,0.20
2023-02-19T15:59:15.805Z,0.68
2023-02-19T16:01:42.419Z,2.25
2023-02-19T16:04:17.351Z,0.45
2023-02-19T16:06:58.949Z,0.20
2023-02-19T16:09:37.060Z,1.15
2023-02-19T16:12:19.375Z,0.43
2023-02-19T16:14:45.827Z,0.60
2023-02-19T16:17:16.639Z,1.98
2023-02-19T16:19:45.585Z,1.03
2023-02-19T16:22:15.963Z,0.38
2023-02-19T16:24:45.754Z,0.70
2023-02-19T16:27:25.729Z,0.40
2023-02-19T16:29:52.225Z,3.03
2023-02-19T16:32:19.051Z,0.30
2023-02-19T16:34:51.543Z,3.08
2023-02-19T16:37:33.161Z,0.85
2023-02-19T16:40:08.658Z,1.10
2023-02-19T16:42:38.034Z,0.82
2023-02-19T16:45:07.970Z,1.33
2023-02-19T16:47:38.241Z,0.90
2023-02-19T16:50:13.161Z,2.42
2023-02-19T16:52:54.217Z,1.40
2023-02-19T16:55:20.958Z,2.03
2023-02-19T16:57:47.837Z,2.93
2023-02-19T17:00:21.490Z,1.35
2023-02-19T17:02:50.750Z,2.05
2023-02-19T17:05:18.285Z,1.70
2023-02-19T17:07:44.872Z,1.70
2023-02-19T17:10:17.720Z,1.57
2023-02-19T17:12:44.247Z,2.78
2023-02-19T17:15:12.232Z,1.85
2023-02-19T17:17:39.030Z,3.03
2023-02-19T17:20:17.472Z,2.00
2023-02-19T17:22:44.623Z,3.23
2023-02-19T17:25:11.265Z,1.77
2023-02-19T17:27:37.720Z,2.50
2023-02-19T17:30:12.892Z,1.42
2023-02-19T17:32:39.414Z,1.33
2023-02-19T17:35:06.472Z,1.30
2023-02-19T17:37:32.860Z,1.65
2023-02-19T17:39:59.325Z,3.08
2023-02-19T17:42:25.861Z,1.65
2023-02-19T17:44:53.555Z,1.63
2023-02-19T17:47:21.378Z,3.23
2023-02-19T17:49:47.866Z,1.25
2023-02-19T17:52:17.509Z,0.63
2023-02-19T17:54:44.070Z,0.82
2023-02-19T17:57:10.587Z,1.38
2023-02-19T17:59:37.005Z,2.30
2023-02-19T18:02:03.455Z,0.70
2023-02-19T18:04:29.820Z,3.42
2023-02-19T18:06:56.301Z,1.02
2023-02-19T18:09:23.045Z,1.45
2023-02-19T18:11:49.473Z,2.50
2023-02-19T18:14:15.940Z,0.82
2023-02-19T18:16:49.763Z,2.65
2023-02-19T18:19:16.875Z,0.57
2023-02-19T18:21:43.272Z,1.67
2023-02-19T18:24:09.770Z,1.30
2023-02-19T18:26:36.183Z,1.48
2023-02-19T18:29:02.629Z,0.70
2023-02-19T18:31:32.675Z,0.85
2023-02-19T18:33:59.216Z,0.80
2023-02-19T18:36:25.704Z,0.90
2023-02-19T18:38:52.104Z,1.77
2023-02-19T18:41:21.057Z,1.05
2023-02-19T18:43:48.022Z,0.85
2023-02-19T18:46:14.817Z,3.40
2023-02-19T18:48:41.483Z,1.63
2023-02-19T18:51:11.702Z,2.40
2023-02-19T18:53:38.327Z,2.10
2023-02-19T18:56:05.536Z,3.60
2023-02-19T18:58:32.018Z,2.88
2023-02-19T19:00:59.459Z,1.23
2023-02-19T19:03:26.030Z,1.55
2023-02-19T19:05:52.685Z,1.73
2023-02-19T19:08:19.118Z,1.25
2023-02-19T19:10:45.587Z,0.60
2023-02-19T19:13:12.013Z,3.47
2023-02-19T19:15:41.295Z,2.15
2023-02-19T19:18:08.751Z,0.95
2023-02-19T19:20:35.282Z,0.70
2023-02-19T19:23:01.705Z,1.42
2023-02-19T19:25:28.137Z,1.40
2023-02-19T19:27:56.225Z,1.63
2023-02-19T19:30:23.029Z,2.22
2023-02-19T19:32:50.398Z,1.80
2023-02-19T19:35:18.946Z,2.40
2023-02-19T19:37:45.491Z,2.80
2023-02-19T19:40:12.210Z,2.05
2023-02-19T19:42:38.678Z,3.65
2023-02-19T19:45:05.840Z,1.08
2023-02-19T19:47:32.523Z,1.20
2023-02-19T19:49:58.958Z,1.93
2023-02-19T19:52:25.341Z,1.52
2023-02-19T19:54:54.717Z,1.13
2023-02-19T19:57:21.173Z,1.42
2023-02-19T19:59:53.727Z,1.10
2023-02-19T20:02:20.334Z,3.20
2023-02-19T20:04:46.893Z,1.48
2023-02-19T20:07:13.320Z,2.95
2023-02-19T20:09:39.785Z,2.03
2023-02-19T20:12:06.681Z,1.73
2023-02-19T20:14:33.764Z,3.63
2023-02-19T20:17:00.856Z,3.55
2023-02-19T20:19:27.276Z,3.15
2023-02-19T20:21:54.008Z,1.75
2023-02-19T20:24:26.321Z,4.05
2023-02-19T20:27:01.881Z,4.23
2023-02-19T20:29:30.543Z,6.43
2023-02-19T20:32:00.565Z,2.15
2023-02-19T20:34:27.688Z,4.35
2023-02-19T20:36:54.498Z,3.03
2023-02-19T20:39:21.954Z,2.70
2023-02-19T20:41:50.811Z,3.40
2023-02-19T20:44:18.502Z,2.00
2023-02-19T20:46:49.886Z,3.25
2023-02-19T20:49:19.160Z,2.78
2023-02-19T20:51:54.991Z,2.43
2023-02-19T20:54:28.123Z,2.35
2023-02-19T20:56:56.629Z,1.67
2023-02-19T20:59:27.076Z,2.22
2023-02-19T21:01:53.696Z,2.88
2023-02-19T21:04:20.213Z,2.93
2023-02-19T21:06:46.670Z,3.08
2023-02-19T21:09:13.133Z,3.33
2023-02-19T21:11:39.743Z,4.47
2023-02-19T21:14:06.486Z,7.38
2023-02-19T21:16:33.365Z,5.70
2023-02-19T21:19:01.074Z,3.00
2023-02-19T21:21:27.857Z,2.90
2023-02-19T21:23:56.159Z,2.58
2023-02-19T21:26:23.313Z,4.00
2023-02-19T21:28:53.304Z,4.67
2023-02-19T21:31:20.834Z,2.70
2023-02-19T21:33:47.404Z,3.35
2023-02-19T21:36:14.057Z,2.35
2023-02-19T21:38:40.659Z,3.15
2023-02-19T21:41:07.205Z,5.27
2023-02-19T21:43:33.604Z,5.78
2023-02-19T21:46:00.028Z,4.97
2023-02-19T21:48:26.501Z,5.13
2023-02-19T21:50:52.884Z,3.17
2023-02-19T21:53:19.432Z,3.77
2023-02-19T21:55:57.790Z,2.95
2023-02-19T21:58:24.580Z,3.70
2023-02-19T22:00:50.956Z,3.83
2023-02-19T22:03:17.426Z,4.68
2023-02-19T22:05:43.905Z,4.37
2023-02-19T22:08:10.294Z,4.97
2023-02-19T22:10:36.676Z,5.30
2023-02-19T22:13:03.080Z,5.72
2023-02-19T22:15:29.517Z,4.18
2023-02-19T22:17:55.920Z,6.10
2023-02-19T22:20:22.272Z,3.85
2023-02-19T22:22:49.767Z,5.53
2023-02-19T22:25:16.831Z,4.38
2023-02-19T22:27:43.282Z,4.88
2023-02-19T22:30:10.691Z,3.90
2023-02-19T22:32:37.283Z,4.20
2023-02-19T22:35:03.836Z,3.30
2023-02-19T22:37:30.234Z,5.35
2023-02-19T22:39:56.652Z,6.47
2023-02-19T22:42:24.216Z,7.17
2023-02-19T22:44:50.805Z,5.78
2023-02-19T22:47:18.584Z,6.82
2023-02-19T22:49:45.451Z,8.70
2023-02-19T22:52:12.704Z,5.65
2023-02-19T22:54:39.401Z,6.13
2023-02-19T22:57:06.094Z,5.43
2023-02-19T22:59:32.675Z,4.85
2023-02-19T23:01:59.116Z,4.90
2023-02-19T23:04:25.833Z,4.93
2023-02-19T23:06:52.876Z,4.67
2023-02-19T23:09:22.804Z,4.95
2023-02-19T23:11:49.226Z,6.35
2023-02-19T23:14:17.566Z,4.78
2023-02-19T23:16:44.157Z,8.23
2023-02-19T23:19:12.990Z,6.77
2023-02-19T23:21:41.138Z,8.00
2023-02-19T23:24:08.195Z,6.05
2023-02-19T23:26:35.283Z,7.18
2023-02-19T23:29:02.369Z,7.68
2023-02-19T23:31:28.961Z,6.60
2023-02-19T23:33:55.607Z,8.75
2023-02-19T23:36:23.785Z,7.18
2023-02-19T23:38:50.211Z,8.73
2023-02-19T23:41:17.608Z,8.93
2023-02-19T23:43:44.716Z,7.37
2023-02-19T23:46:17.643Z,6.60
2023-02-19T23:48:45.354Z,7.72
2023-02-19T23:51:12.288Z,7.97
2023-02-19T23:53:38.714Z,9.07
2023-02-19T23:56:05.725Z,10.17
2023-02-19T23:58:32.451Z,8.20
